DAL1694 KMSP-KFSD
Flight info
| Callsign | DAL1694 |
|---|---|
| Flight time | 0h 36m |
| Altitude | 26000 |
| Route | SCHEP1 RXANN FSD |
| Aircraft | A320/M-SDE3FGHIRWY/LB1 |
Departure
| Time | 2026-05-06 00:58 |
|---|---|
| Airport | Minneapolis–Saint Paul International Airport / Wold–Chamberlain Field (KMSP) |
Arrival
| Time | 2026-05-06 01:34 |
|---|---|
| Airport | Sioux Falls Regional Airport (KFSD) |
| Time | Latitude | Longitude | Altitude | Speed | Heading |
|---|---|---|---|---|---|
| 2026-05-06 00:48 | 44.88014 | -93.20950 | 829 ft | 0 kts | 31° |
| 2026-05-06 00:52 | 44.88014 | -93.20951 | 829 ft | 1 kts | 31° |
| 2026-05-06 00:52 | 44.87993 | -93.20969 | 826 ft | 4 kts | 36° |
| 2026-05-06 00:52 | 44.87973 | -93.20993 | 826 ft | 4 kts | 50° |
| 2026-05-06 00:52 | 44.87959 | -93.21024 | 829 ft | 4 kts | 82° |
| 2026-05-06 00:53 | 44.87961 | -93.21047 | 828 ft | 0 kts | 122° |
| 2026-05-06 00:55 | 44.87954 | -93.21030 | 831 ft | 6 kts | 121° |
| 2026-05-06 00:55 | 44.87935 | -93.20987 | 835 ft | 5 kts | 121° |
| 2026-05-06 00:55 | 44.87909 | -93.20929 | 834 ft | 14 kts | 121° |
| 2026-05-06 00:55 | 44.87807 | -93.20784 | 831 ft | 22 kts | 139° |
| 2026-05-06 00:56 | 44.87706 | -93.20635 | 832 ft | 20 kts | 123° |
| 2026-05-06 00:56 | 44.87631 | -93.20470 | 834 ft | 19 kts | 121° |
| 2026-05-06 00:56 | 44.87565 | -93.20314 | 832 ft | 18 kts | 121° |
| 2026-05-06 00:56 | 44.87500 | -93.20202 | 833 ft | 9 kts | 171° |
| 2026-05-06 00:57 | 44.87445 | -93.20240 | 830 ft | 11 kts | 236° |
| 2026-05-06 00:57 | 44.87456 | -93.20350 | 828 ft | 13 kts | 292° |
| 2026-05-06 00:57 | 44.87521 | -93.20504 | 826 ft | 37 kts | 302° |
| 2026-05-06 00:57 | 44.87779 | -93.21096 | 835 ft | 102 kts | 302° |
| 2026-05-06 00:58 | 44.88245 | -93.22172 | 842 ft | 152 kts | 302° |
| 2026-05-06 00:58 | 44.88805 | -93.23476 | 1369 ft | 157 kts | 301° |
| 2026-05-06 00:58 | 44.89380 | -93.24806 | 1995 ft | 161 kts | 302° |
| 2026-05-06 00:58 | 44.89962 | -93.26230 | 2484 ft | 177 kts | 297° |
| 2026-05-06 00:59 | 44.90129 | -93.28064 | 2767 ft | 209 kts | 259° |
| 2026-05-06 00:59 | 44.89360 | -93.29978 | 3183 ft | 241 kts | 237° |
| 2026-05-06 00:59 | 44.88266 | -93.31883 | 3840 ft | 256 kts | 233° |
| 2026-05-06 00:59 | 44.87084 | -93.33791 | 4789 ft | 260 kts | 232° |
| 2026-05-06 01:00 | 44.85878 | -93.35711 | 5752 ft | 263 kts | 233° |
| 2026-05-06 01:00 | 44.84669 | -93.37648 | 6722 ft | 263 kts | 233° |
| 2026-05-06 01:00 | 44.83463 | -93.39603 | 7636 ft | 266 kts | 233° |
| 2026-05-06 01:00 | 44.82251 | -93.41591 | 8547 ft | 269 kts | 233° |
| 2026-05-06 01:01 | 44.81029 | -93.43599 | 9465 ft | 271 kts | 233° |
| 2026-05-06 01:01 | 44.79791 | -93.45636 | 10250 ft | 279 kts | 234° |
| 2026-05-06 01:01 | 44.78483 | -93.47806 | 10526 ft | 303 kts | 233° |
| 2026-05-06 01:01 | 44.77072 | -93.50149 | 10818 ft | 323 kts | 233° |
| 2026-05-06 01:02 | 44.75596 | -93.52590 | 11449 ft | 331 kts | 233° |
| 2026-05-06 01:02 | 44.74093 | -93.55071 | 12215 ft | 335 kts | 233° |
| 2026-05-06 01:02 | 44.72573 | -93.57576 | 12991 ft | 339 kts | 232° |
| 2026-05-06 01:02 | 44.71035 | -93.60103 | 13759 ft | 342 kts | 232° |
| 2026-05-06 01:03 | 44.69500 | -93.62678 | 14433 ft | 345 kts | 234° |
| 2026-05-06 01:03 | 44.68033 | -93.65358 | 15115 ft | 347 kts | 236° |
| 2026-05-06 01:03 | 44.66610 | -93.68109 | 15793 ft | 349 kts | 237° |
| 2026-05-06 01:03 | 44.65200 | -93.70901 | 16481 ft | 352 kts | 237° |
| 2026-05-06 01:04 | 44.63780 | -93.73713 | 17154 ft | 355 kts | 237° |
| 2026-05-06 01:04 | 44.62337 | -93.76542 | 17828 ft | 358 kts | 237° |
| 2026-05-06 01:04 | 44.60877 | -93.79377 | 18463 ft | 360 kts | 237° |
| 2026-05-06 01:04 | 44.59636 | -93.81769 | 18990 ft | 361 kts | 237° |
| 2026-05-06 01:05 | 44.58172 | -93.84571 | 19668 ft | 360 kts | 237° |
| 2026-05-06 01:05 | 44.56670 | -93.87441 | 20376 ft | 360 kts | 238° |
| 2026-05-06 01:05 | 44.55210 | -93.90225 | 21055 ft | 359 kts | 238° |
| 2026-05-06 01:05 | 44.53736 | -93.93036 | 21751 ft | 356 kts | 239° |
| 2026-05-06 01:06 | 44.52279 | -93.95811 | 22517 ft | 352 kts | 239° |
| 2026-05-06 01:06 | 44.50833 | -93.98561 | 23223 ft | 350 kts | 240° |
| 2026-05-06 01:06 | 44.49396 | -94.01300 | 23820 ft | 348 kts | 240° |
| 2026-05-06 01:06 | 44.47963 | -94.04031 | 24316 ft | 348 kts | 240° |
| 2026-05-06 01:07 | 44.46532 | -94.06756 | 24781 ft | 347 kts | 240° |
| 2026-05-06 01:07 | 44.45101 | -94.09482 | 25236 ft | 347 kts | 240° |
| 2026-05-06 01:07 | 44.43671 | -94.12205 | 25673 ft | 348 kts | 240° |
| 2026-05-06 01:07 | 44.42236 | -94.14926 | 25930 ft | 347 kts | 240° |
| 2026-05-06 01:08 | 44.40798 | -94.17643 | 25982 ft | 347 kts | 240° |
| 2026-05-06 01:08 | 44.39360 | -94.20353 | 26001 ft | 348 kts | 239° |
| 2026-05-06 01:08 | 44.37912 | -94.23075 | 25989 ft | 349 kts | 239° |
| 2026-05-06 01:08 | 44.36466 | -94.25800 | 25983 ft | 349 kts | 240° |
| 2026-05-06 01:09 | 44.35023 | -94.28527 | 25980 ft | 349 kts | 240° |
| 2026-05-06 01:09 | 44.33580 | -94.31256 | 25939 ft | 348 kts | 240° |
| 2026-05-06 01:09 | 44.32143 | -94.33970 | 25978 ft | 347 kts | 240° |
| 2026-05-06 01:09 | 44.30705 | -94.36676 | 25980 ft | 347 kts | 240° |
| 2026-05-06 01:10 | 44.29271 | -94.39373 | 25989 ft | 346 kts | 240° |
| 2026-05-06 01:10 | 44.27829 | -94.42071 | 25985 ft | 346 kts | 239° |
| 2026-05-06 01:10 | 44.26387 | -94.44758 | 25984 ft | 346 kts | 239° |
| 2026-05-06 01:10 | 44.24944 | -94.47453 | 25981 ft | 346 kts | 239° |
| 2026-05-06 01:11 | 44.23506 | -94.50140 | 25976 ft | 346 kts | 239° |
| 2026-05-06 01:11 | 44.22064 | -94.52833 | 25974 ft | 346 kts | 239° |
| 2026-05-06 01:11 | 44.20625 | -94.55520 | 25974 ft | 346 kts | 239° |
| 2026-05-06 01:11 | 44.19191 | -94.58210 | 25973 ft | 346 kts | 240° |
| 2026-05-06 01:12 | 44.17758 | -94.60906 | 25971 ft | 346 kts | 239° |
| 2026-05-06 01:12 | 44.16317 | -94.63597 | 25968 ft | 347 kts | 239° |
| 2026-05-06 01:12 | 44.14870 | -94.66287 | 25967 ft | 347 kts | 239° |
| 2026-05-06 01:12 | 44.13425 | -94.68975 | 25984 ft | 347 kts | 239° |
| 2026-05-06 01:13 | 44.11979 | -94.71671 | 25969 ft | 348 kts | 239° |
| 2026-05-06 01:13 | 44.10529 | -94.74377 | 25982 ft | 349 kts | 239° |
| 2026-05-06 01:13 | 44.09070 | -94.77083 | 25985 ft | 350 kts | 239° |
| 2026-05-06 01:13 | 44.07608 | -94.79787 | 25991 ft | 350 kts | 239° |
| 2026-05-06 01:14 | 44.04685 | -94.85186 | 25992 ft | 349 kts | 239° |
| 2026-05-06 01:14 | 44.03222 | -94.87884 | 25993 ft | 349 kts | 239° |
| 2026-05-06 01:14 | 44.01762 | -94.90582 | 25994 ft | 349 kts | 239° |
| 2026-05-06 01:15 | 44.00328 | -94.93297 | 25991 ft | 347 kts | 243° |
| 2026-05-06 01:15 | 43.99229 | -94.96236 | 25998 ft | 341 kts | 251° |
| 2026-05-06 01:15 | 43.98378 | -94.99313 | 25997 ft | 341 kts | 252° |
| 2026-05-06 01:15 | 43.97525 | -95.02388 | 25994 ft | 341 kts | 252° |
| 2026-05-06 01:16 | 43.96667 | -95.05455 | 25993 ft | 341 kts | 251° |
| 2026-05-06 01:16 | 43.95805 | -95.08519 | 25990 ft | 341 kts | 251° |
| 2026-05-06 01:16 | 43.94943 | -95.11585 | 25989 ft | 341 kts | 251° |
| 2026-05-06 01:16 | 43.94082 | -95.14649 | 25988 ft | 341 kts | 251° |
| 2026-05-06 01:17 | 43.93222 | -95.17711 | 25992 ft | 341 kts | 251° |
| 2026-05-06 01:17 | 43.92653 | -95.19737 | 25993 ft | 340 kts | 251° |
| 2026-05-06 01:17 | 43.91798 | -95.22786 | 25609 ft | 339 kts | 252° |
| 2026-05-06 01:17 | 43.90931 | -95.25872 | 24443 ft | 348 kts | 252° |
| 2026-05-06 01:18 | 43.89759 | -95.30042 | 23349 ft | 349 kts | 251° |
| 2026-05-06 01:18 | 43.88881 | -95.33134 | 22838 ft | 341 kts | 251° |
| 2026-05-06 01:18 | 43.88019 | -95.36155 | 22392 ft | 333 kts | 251° |
| 2026-05-06 01:18 | 43.87446 | -95.38160 | 22091 ft | 329 kts | 251° |
| 2026-05-06 01:19 | 43.86346 | -95.42026 | 21519 ft | 322 kts | 251° |
| 2026-05-06 01:19 | 43.85796 | -95.43963 | 21250 ft | 318 kts | 251° |
| 2026-05-06 01:19 | 43.84993 | -95.46793 | 20847 ft | 314 kts | 251° |
| 2026-05-06 01:19 | 43.84192 | -95.49610 | 20459 ft | 314 kts | 251° |
| 2026-05-06 01:20 | 43.83389 | -95.52429 | 20061 ft | 315 kts | 251° |
| 2026-05-06 01:20 | 43.82584 | -95.55258 | 19679 ft | 316 kts | 251° |
| 2026-05-06 01:20 | 43.81776 | -95.58100 | 19284 ft | 318 kts | 251° |
| 2026-05-06 01:20 | 43.80966 | -95.60949 | 18891 ft | 319 kts | 251° |
| 2026-05-06 01:21 | 43.80149 | -95.63811 | 18497 ft | 320 kts | 251° |
| 2026-05-06 01:21 | 43.79327 | -95.66683 | 18077 ft | 322 kts | 251° |
| 2026-05-06 01:21 | 43.78500 | -95.69561 | 17609 ft | 321 kts | 251° |
| 2026-05-06 01:21 | 43.77675 | -95.72428 | 17171 ft | 320 kts | 251° |
| 2026-05-06 01:22 | 43.76852 | -95.75285 | 16752 ft | 318 kts | 251° |
| 2026-05-06 01:22 | 43.76036 | -95.78122 | 16318 ft | 317 kts | 251° |
| 2026-05-06 01:22 | 43.75221 | -95.80952 | 15884 ft | 316 kts | 251° |
| 2026-05-06 01:22 | 43.74407 | -95.83781 | 15434 ft | 316 kts | 251° |
| 2026-05-06 01:23 | 43.73596 | -95.86596 | 15001 ft | 315 kts | 251° |
| 2026-05-06 01:23 | 43.72785 | -95.89399 | 14557 ft | 314 kts | 251° |
| 2026-05-06 01:23 | 43.71971 | -95.92204 | 14112 ft | 314 kts | 251° |
| 2026-05-06 01:23 | 43.71170 | -95.94960 | 13645 ft | 313 kts | 251° |
| 2026-05-06 01:24 | 43.70350 | -95.97787 | 13158 ft | 312 kts | 251° |
| 2026-05-06 01:24 | 43.69556 | -96.00527 | 12708 ft | 311 kts | 251° |
| 2026-05-06 01:24 | 43.68752 | -96.03292 | 12239 ft | 309 kts | 251° |
| 2026-05-06 01:24 | 43.67950 | -96.06044 | 11774 ft | 308 kts | 251° |
| 2026-05-06 01:25 | 43.67148 | -96.08779 | 11299 ft | 306 kts | 251° |
| 2026-05-06 01:25 | 43.66349 | -96.11499 | 10819 ft | 305 kts | 251° |
| 2026-05-06 01:25 | 43.65563 | -96.14181 | 10600 ft | 295 kts | 251° |
| 2026-05-06 01:25 | 43.64808 | -96.16757 | 10473 ft | 284 kts | 251° |
| 2026-05-06 01:26 | 43.64082 | -96.19243 | 10257 ft | 276 kts | 251° |
| 2026-05-06 01:26 | 43.63370 | -96.21686 | 10004 ft | 272 kts | 251° |
| 2026-05-06 01:26 | 43.62663 | -96.24104 | 9854 ft | 272 kts | 251° |
| 2026-05-06 01:26 | 43.61957 | -96.26520 | 9717 ft | 271 kts | 251° |
| 2026-05-06 01:27 | 43.61253 | -96.28932 | 9579 ft | 271 kts | 251° |
| 2026-05-06 01:27 | 43.60546 | -96.31351 | 9172 ft | 275 kts | 251° |
| 2026-05-06 01:27 | 43.59830 | -96.33791 | 8735 ft | 273 kts | 251° |
| 2026-05-06 01:27 | 43.59107 | -96.36243 | 8250 ft | 275 kts | 251° |
| 2026-05-06 01:28 | 43.58395 | -96.38649 | 7739 ft | 269 kts | 251° |
| 2026-05-06 01:28 | 43.57691 | -96.41037 | 7010 ft | 268 kts | 251° |
| 2026-05-06 01:28 | 43.56992 | -96.43410 | 6298 ft | 267 kts | 251° |
| 2026-05-06 01:28 | 43.56291 | -96.45786 | 5742 ft | 268 kts | 251° |
| 2026-05-06 01:29 | 43.55592 | -96.48142 | 5351 ft | 262 kts | 251° |
| 2026-05-06 01:29 | 43.54903 | -96.50453 | 4612 ft | 261 kts | 251° |
| 2026-05-06 01:29 | 43.54217 | -96.52754 | 3959 ft | 257 kts | 251° |
| 2026-05-06 01:29 | 43.53560 | -96.54958 | 3859 ft | 241 kts | 251° |
| 2026-05-06 01:30 | 43.52943 | -96.57022 | 3778 ft | 224 kts | 252° |
| 2026-05-06 01:30 | 43.52379 | -96.58903 | 3722 ft | 204 kts | 252° |
| 2026-05-06 01:30 | 43.51850 | -96.60680 | 3666 ft | 195 kts | 252° |
| 2026-05-06 01:30 | 43.51347 | -96.62375 | 3603 ft | 189 kts | 252° |
| 2026-05-06 01:31 | 43.50855 | -96.64032 | 3500 ft | 185 kts | 253° |
| 2026-05-06 01:31 | 43.50381 | -96.65622 | 3405 ft | 169 kts | 253° |
| 2026-05-06 01:31 | 43.50196 | -96.67068 | 3355 ft | 144 kts | 279° |
| 2026-05-06 01:31 | 43.50468 | -96.68316 | 3280 ft | 134 kts | 302° |
| 2026-05-06 01:32 | 43.51073 | -96.69259 | 3029 ft | 132 kts | 324° |
| 2026-05-06 01:32 | 43.51886 | -96.69835 | 2817 ft | 131 kts | 334° |
| 2026-05-06 01:32 | 43.52713 | -96.70363 | 2584 ft | 131 kts | 334° |
| 2026-05-06 01:32 | 43.53541 | -96.70896 | 2352 ft | 133 kts | 333° |
| 2026-05-06 01:33 | 43.54377 | -96.71433 | 2134 ft | 134 kts | 334° |
| 2026-05-06 01:33 | 43.55212 | -96.71968 | 1950 ft | 132 kts | 335° |
| 2026-05-06 01:33 | 43.56039 | -96.72499 | 1774 ft | 132 kts | 336° |
| 2026-05-06 01:33 | 43.56857 | -96.73033 | 1585 ft | 133 kts | 335° |
| 2026-05-06 01:34 | 43.57683 | -96.73569 | 1443 ft | 129 kts | 338° |
| 2026-05-06 01:34 | 43.58335 | -96.73979 | 1431 ft | 65 kts | 336° |
| 2026-05-06 01:34 | 43.58528 | -96.74099 | 1430 ft | 16 kts | 337° |
| 2026-05-06 01:34 | 43.58621 | -96.74058 | 1432 ft | 14 kts | 53° |
| 2026-05-06 01:35 | 43.58579 | -96.73970 | 1432 ft | 11 kts | 154° |
| 2026-05-06 01:35 | 43.58511 | -96.73925 | 1431 ft | 10 kts | 153° |
| 2026-05-06 01:35 | 43.58439 | -96.73880 | 1431 ft | 13 kts | 155° |
| 2026-05-06 01:35 | 43.58361 | -96.73830 | 1432 ft | 12 kts | 155° |
| 2026-05-06 01:36 | 43.58291 | -96.73785 | 1432 ft | 11 kts | 155° |
| 2026-05-06 01:36 | 43.58214 | -96.73736 | 1431 ft | 14 kts | 154° |
| 2026-05-06 01:36 | 43.58128 | -96.73680 | 1432 ft | 13 kts | 155° |
| 2026-05-06 01:36 | 43.58053 | -96.73596 | 1431 ft | 15 kts | 90° |
| 2026-05-06 01:37 | 43.58013 | -96.73493 | 1431 ft | 11 kts | 127° |
| 2026-05-06 01:37 | 43.57970 | -96.73413 | 1431 ft | 10 kts | 118° |
| 2026-05-06 01:37 | 43.57981 | -96.73346 | 1431 ft | 7 kts | 46° |
| 2026-05-06 01:37 | 43.57990 | -96.73321 | 1431 ft | 0 kts | 67° |